createdAt,value
2022-08-23T06:11:28.263Z,4.72
2022-08-23T06:13:56.537Z,3.95
2022-08-23T06:16:25.824Z,4.57
2022-08-23T06:18:52.915Z,3.47
2022-08-23T06:21:19.956Z,5.28
2022-08-23T06:23:48.328Z,3.33
2022-08-23T06:26:16.983Z,5.38
2022-08-23T06:28:51.125Z,6.32
2022-08-23T06:31:39.084Z,5.35
2022-08-23T06:34:06.085Z,6.80
2022-08-23T06:36:33.931Z,7.68
2022-08-23T06:39:05.102Z,8.35
2022-08-23T06:41:32.089Z,9.00
2022-08-23T06:43:59.025Z,7.83
2022-08-23T06:46:29.233Z,6.30
2022-08-23T06:48:57.551Z,3.05
2022-08-23T06:51:27.658Z,4.97
2022-08-23T06:53:55.240Z,4.32
2022-08-23T06:56:23.173Z,7.00
2022-08-23T06:58:50.800Z,6.25
2022-08-23T07:03:56.797Z,5.45
2022-08-23T07:06:24.594Z,1.90
2022-08-23T07:08:51.715Z,2.72
2022-08-23T07:11:20.691Z,3.10
2022-08-23T07:13:48.020Z,4.55
2022-08-23T07:16:17.900Z,5.40
2022-08-23T07:18:45.849Z,14.53
2022-08-23T07:21:13.724Z,9.50
2022-08-23T07:23:44.836Z,9.98
2022-08-23T07:26:16.251Z,6.77
2022-08-23T07:28:43.781Z,6.10
2022-08-23T07:33:49.214Z,7.78
2022-08-23T07:36:18.324Z,7.90
2022-08-23T07:38:46.031Z,4.97
2022-08-23T07:41:13.579Z,4.75
2022-08-23T07:43:41.214Z,8.20
2022-08-23T07:46:09.387Z,3.40
2022-08-23T07:48:53.934Z,5.85
2022-08-23T07:51:21.944Z,5.60
2022-08-23T07:53:48.888Z,12.70
2022-08-23T07:56:16.927Z,13.35
2022-08-23T07:58:44.084Z,16.43
2022-08-23T08:01:15.523Z,11.10
2022-08-23T08:03:43.727Z,12.93
2022-08-23T08:06:12.618Z,11.45
2022-08-23T08:08:40.934Z,12.02
2022-08-23T08:11:10.754Z,13.13
2022-08-23T08:13:38.893Z,11.18
2022-08-23T08:16:06.128Z,12.02
2022-08-23T08:18:33.207Z,8.35
2022-08-23T08:21:00.980Z,9.65
2022-08-23T08:23:29.118Z,9.93
2022-08-23T08:26:01.200Z,8.95
2022-08-23T08:28:28.188Z,8.93
2022-08-23T08:30:55.260Z,7.75
2022-08-23T08:33:22.250Z,8.15
2022-08-23T08:35:59.223Z,8.13
2022-08-23T08:38:30.692Z,7.60
2022-08-23T08:41:02.396Z,7.65
2022-08-23T08:43:49.342Z,6.50
2022-08-23T08:46:24.367Z,6.80
2022-08-23T08:48:53.973Z,7.90
2022-08-23T08:53:59.813Z,6.80
2022-08-23T08:56:32.697Z,6.07
2022-08-23T08:59:01.829Z,6.35
2022-08-23T09:01:29.572Z,7.07
2022-08-23T09:03:57.374Z,3.22
2022-08-23T09:06:29.187Z,4.00
2022-08-23T09:09:16.112Z,1.90
2022-08-23T09:11:56.780Z,2.57
2022-08-23T09:17:05.652Z,5.50
2022-08-23T09:19:35.169Z,5.07
2022-08-23T09:22:05.181Z,3.40
2022-08-23T09:24:32.113Z,3.78
2022-08-23T09:26:59.515Z,6.10
2022-08-23T09:29:28.583Z,4.30
2022-08-23T09:31:58.404Z,4.32
2022-08-23T09:37:14.396Z,3.28
2022-08-23T09:39:43.178Z,3.45
2022-08-23T09:42:27.058Z,3.53
2022-08-23T09:44:54.720Z,2.53
2022-08-23T09:47:23.642Z,3.72
2022-08-23T09:49:51.955Z,2.97
2022-08-23T09:52:22.369Z,5.00
2022-08-23T09:54:58.991Z,3.80
2022-08-23T09:57:27.975Z,2.65
2022-08-23T09:59:57.504Z,4.25
2022-08-23T10:02:27.569Z,2.85
2022-08-23T10:10:18.628Z,3.03
2022-08-23T10:12:46.290Z,1.90
2022-08-23T10:15:14.982Z,2.75
2022-08-23T10:18:02.980Z,2.40
2022-08-23T10:23:27.634Z,2.65
2022-08-23T10:25:54.645Z,1.80
2022-08-23T10:28:51.353Z,2.42
2022-08-23T10:31:38.751Z,1.65
2022-08-23T10:34:25.646Z,2.63
2022-08-23T10:37:04.728Z,1.65
2022-08-23T10:39:32.001Z,0.80
2022-08-23T10:44:44.328Z,1.23
2022-08-23T10:49:51.584Z,3.45
2022-08-23T10:52:22.206Z,2.88
2022-08-23T10:55:00.937Z,2.28
2022-08-23T10:57:33.308Z,3.28
2022-08-23T11:00:00.805Z,4.60
2022-08-23T11:02:49.630Z,3.50
2022-08-23T11:05:21.458Z,6.40
2022-08-23T11:07:58.538Z,3.22
2022-08-23T11:10:30.816Z,3.47
2022-08-23T11:15:55.111Z,2.55
2022-08-23T11:18:42.539Z,3.63
2022-08-23T11:32:11.839Z,4.00
2022-08-23T11:34:59.659Z,4.07
2022-08-23T11:37:29.330Z,1.95
2022-08-23T11:45:34.884Z,1.75
2022-08-23T11:48:19.457Z,2.55
2022-08-23T11:51:06.407Z,3.67
2022-08-23T11:53:53.282Z,1.33
2022-08-23T11:56:44.401Z,1.48
2022-08-23T11:59:23.817Z,1.40
2022-08-23T12:01:51.067Z,1.20
2022-08-23T12:04:42.239Z,1.13
2022-08-23T12:07:13.022Z,3.00
2022-08-23T12:12:28.474Z,1.00
2022-08-23T12:14:57.877Z,0.40
2022-08-23T12:20:16.975Z,0.80
2022-08-23T12:25:38.560Z,1.85
2022-08-23T12:28:09.189Z,3.42
2022-08-23T12:30:44.139Z,2.42
2022-08-23T12:33:22.257Z,2.50
